Oana — V7KS7 — position and weather

sailwx.info

Track history (hours):
 
Tides and Currents Weather Stations Pressure Air Temp Water Temp Dewpoint Dewpoint Depression Visibility Wind Speed Wind Dir Waves Ship Positions

Oana

Last reported at 2017-Nov-02 09:29 UTC. Time now 2017-Dec-16 12:49 UTC.
Position N 16°15' W 062°41'.
Warning: this ship's position is 44 days out of date.

Length 101 m; draft 6.5 m.

Type: Tanker. MMSI: 538002673.

Date/timePositionNaut miles runAvg speedWind from/ knotsBaromVisibWave heightAir tempDewpointWater temp
2017-Nov-02 09:29N 16°15' W 062°41'2314.2
2017-Nov-02 07:52N 16°24' W 062°19'514.1
2017-Nov-02 07:30N 16°26' W 062°14'714.1
2017-Nov-02 07:00N 16°28' W 062°07'714.1
2017-Nov-02 06:30N 16°32' W 062°01'714.2
2017-Nov-02 06:00N 16°35' W 061°54'714.3
2017-Nov-02 05:30N 16°39' W 061°48'714.2
2017-Nov-02 05:00N 16°43' W 061°42'714.3
2017-Nov-02 04:30N 16°46' W 061°35'714.4
2017-Nov-02 04:00N 16°50' W 061°29'714.0
2017-Nov-02 03:30N 16°54' W 061°22'713.8
2017-Nov-02 03:00N 16°57' W 061°16'713.8
2017-Nov-02 02:31N 17°01' W 061°10'713.7
2017-Nov-02 02:00N 17°04' W 061°04'  
Track history (hours):
 
Tides and Currents Weather Stations Pressure Air Temp Water Temp Dewpoint Dewpoint Depression Visibility Wind Speed Wind Dir Waves Ship Positions

Oana

Last reported at 2017-Nov-02 09:29 UTC. Time now 2017-Dec-16 12:49 UTC.
Position N 16°15' W 062°41'.
Warning: this ship's position is 44 days out of date.

Length 101 m; draft 6.5 m.

Type: Tanker. MMSI: 538002673.

Date/timePositionNaut miles runAvg speedWind from/ knotsBaromVisibWave heightAir tempDewpointWater temp
2017-Nov-02 09:29N 16°15' W 062°41'2314.2
2017-Nov-02 07:52N 16°24' W 062°19'514.1
2017-Nov-02 07:30N 16°26' W 062°14'714.1
2017-Nov-02 07:00N 16°28' W 062°07'714.1
2017-Nov-02 06:30N 16°32' W 062°01'714.2
2017-Nov-02 06:00N 16°35' W 061°54'714.3
2017-Nov-02 05:30N 16°39' W 061°48'714.2
2017-Nov-02 05:00N 16°43' W 061°42'714.3
2017-Nov-02 04:30N 16°46' W 061°35'714.4
2017-Nov-02 04:00N 16°50' W 061°29'714.0
2017-Nov-02 03:30N 16°54' W 061°22'713.8
2017-Nov-02 03:00N 16°57' W 061°16'713.8
2017-Nov-02 02:31N 17°01' W 061°10'713.7
2017-Nov-02 02:00N 17°04' W 061°04'  

Dump ship's entire track history